메인 페이지
METAR-TAF:

METAR-TAF

공항 :

더럼, 잉글랜드

위도: 54-31N, 경도: 001-25W, 고도: 37m

현재 날씨관측

예보는 47분 전, 15:50시(UTC)에 발표되었습니다.
남서4kt남남동풍과 북서풍을 오가는
온도 22°C
습도 50%
기압 1017 hPa
시정 10km 이상
고도 4800ft 상공 구름 보통

METAR: EGNV 201550Z 22004KT 150V310 9999 SCT048 22/11 Q1017

시각: 17:37 (16:37 UTC)

예보

예보는 2 시간 35분 전, 14:02시(UTC)에 발표되었습니다.
예보 대상 시간: 20일 15시부터 20일 21시까지 (UTC)
남남서8kt
시정 10km 이상
고도 4500ft 상공 구름 조금

TAF: EGNV 201402Z 2015/2021 20008KT 9999 FEW045

4,000개 이상의 공항 관측 자료 및 예보 (METAR 및 TAF 보고).

지도상에서 검색 가능한 기상관측소가 노란 점과 빨간 점으로 표시되어 있습니다.

기상관측소 명을 보려면 표시 위로 마우스를 이동하세요.

날씨 관측과 예보를 보려면 클릭하세요.

지도 변경 : 확대하려면 엑스 표시가 있는 녹색 버튼, 축소하려면 빼기 표시가 있는 녹색 버튼, 다음 페이지의 지도를 보려면 녹색 화살표를 클릭하세요.


METAR-TAF: